1998 HSK0198:M29697 (1997199S04079)


On this page: IBTrACS data - Map and Plots - Positions - Intensities - Original source data

Summary

Start Jul 18
End Jul 25
Basin SI
LMI 45 kt
Sources jtwc_sh
reunion
neumann
In WMO? Yes
Previous storm 1997 DANNY (NA)
Previous in basin 1997 RHONDA (SI)
Concurrent storms 1997 ROSIE (WP)
1997 FELICIA (EP)
1997 MISSING (NA)
1997 DANNY (NA)
1998 HSK0198 (SI)
1997 SCOTT (WP)
1997 TINA (WP)
Next in basin Missing
Next storm 1997 SCOTT (WP)

top of page IBTrACS Data: File Access

Image of storm

top of page Plots:

Map of storm track will not appear if FTP is down
Time series of cyclone Maximum Sustained Wind will not appear if FTP is down
Time series of cyclone Minimum Central Pressure will not appear if FTP is down

top of page Track Data:Position

jtwc_sh reunion neumann
Date Lat Lon Lat Lon Lat Lon
1997-07-18 00:00:00 -3.8 78.7 -3.8 78.7
1997-07-18 06:00:00 -3.8 78.6 -3.8 78.6
1997-07-18 12:00:00 -3.9 78.4 -3.9 78.4
1997-07-18 18:00:00 -4.0 78.2 -4.0 78.2
1997-07-19 00:00:00 -4.1 78.0 -4.1 78.0
1997-07-19 06:00:00 -4.3 77.8 -4.3 77.8
1997-07-19 12:00:00 -4.5 77.6 -4.5 77.6
1997-07-19 18:00:00 -4.8 77.3 -4.8 77.3
1997-07-20 00:00:00 -5.3 76.9 -5.9 76.8 -5.3 76.9
1997-07-20 06:00:00 -5.8 76.7 -6.1 76.7 -5.8 76.7
1997-07-20 12:00:00 -6.2 76.6 -6.4 76.7 -6.2 76.6
1997-07-20 18:00:00 -6.5 76.4 -6.6 76.7 -6.5 76.4
1997-07-21 00:00:00 -6.8 76.2 -6.8 76.7 -6.8 76.2
1997-07-21 06:00:00 -7.1 76.1 -7.1 76.6 -7.1 76.1
1997-07-21 12:00:00 -7.5 75.9 -7.4 76.6 -7.5 75.9
1997-07-21 18:00:00 -7.8 75.8 -7.7 76.5 -7.8 75.8
1997-07-22 00:00:00 -8.2 75.7 -8.0 76.3 -8.2 75.7
1997-07-22 06:00:00 -8.5 75.7 -8.3 76.0 -8.5 75.7
1997-07-22 12:00:00 -8.9 75.5 -8.4 75.8 -8.9 75.5
1997-07-22 18:00:00 -9.2 75.2 -8.5 75.7 -9.2 75.2
1997-07-23 00:00:00 -9.5 74.9 -8.6 75.5 -9.5 74.9
1997-07-23 06:00:00 -9.5 74.5 -9.1 75.1 -9.5 74.5
1997-07-23 12:00:00 -9.3 74.0 -9.3 74.4 -9.3 74.0
1997-07-23 18:00:00 -9.1 73.4 -9.1 73.5 -9.1 73.4
1997-07-24 00:00:00 -8.9 72.7 -8.8 72.9 -8.9 72.7
jtwc_sh reunion neumann
1997-07-24 06:00:00 -9.0 71.9 -8.6 72.7 -9.0 71.9
1997-07-24 12:00:00 -9.4 71.2 -8.4 71.8 -9.4 71.2
1997-07-24 18:00:00 -9.8 70.4 -8.3 70.8 -9.8 70.4
1997-07-25 00:00:00 -8.1 69.6
1997-07-25 06:00:00 -7.8 68.4

top of pageTrack Data:Intensity

jtwc_sh reunion neumann
Date Wind Pres Wind Pres Wind Pres
1997-07-18 00:00:00 15. 15.
1997-07-18 06:00:00 15. 15.
1997-07-18 12:00:00 20. 20.
1997-07-18 18:00:00 25. 25.
1997-07-19 00:00:00 30. 30.
1997-07-19 06:00:00 35. 35.
1997-07-19 12:00:00 25. 25.
1997-07-19 18:00:00 25. 25.
1997-07-20 00:00:00 25. 25. 1002. 25.
1997-07-20 06:00:00 25. 25. 1002. 25.
1997-07-20 12:00:00 30. 25. 1000. 30.
1997-07-20 18:00:00 35. 28. 998. 35.
1997-07-21 00:00:00 40. 28. 998. 40.
1997-07-21 06:00:00 45. 28. 998. 45.
1997-07-21 12:00:00 45. 30. 995. 45.
1997-07-21 18:00:00 45. 30. 995. 45.
1997-07-22 00:00:00 45. 30. 995. 45.
1997-07-22 06:00:00 45. 30. 995. 45.
1997-07-22 12:00:00 45. 28. 997. 45.
1997-07-22 18:00:00 45. 25. 1000. 45.
1997-07-23 00:00:00 40. 25. 1000. 40.
1997-07-23 06:00:00 40. 25. 1000. 40.
1997-07-23 12:00:00 40. 25. 1000. 40.
1997-07-23 18:00:00 40. 25. 1000. 40.
1997-07-24 00:00:00 35. 20. 1004. 35.
jtwc_sh reunion neumann
1997-07-24 06:00:00 30. 20. 1004. 30.
1997-07-24 12:00:00 25. 20. 1004. 25.
1997-07-24 18:00:00 25. 25.
1997-07-25 00:00:00
1997-07-25 06:00:00

top of page Links to source data

Source Source file Format
jtwc_sh bsh011998.txt ATCF
reunion WMO-Best-Tracks.txt:Line=18071:m29697 WMO (old format)
neumann tracks.sh:Storm=1103:HSK0198:BSH011998:JTWC HURDAT